Time;durP1;ratioP1;P1;durP2;ratioP2;P2;SDS_P1;SDS_P2;PMS_P1;PMS_P2;Temp;Humidity;BMP_temperature;BMP_pressure;BME280_temperature;BME280_humidity;BME280_pressure;Samples;Min_cycle;Max_cycle;Signal;HPM_P1;HPM_P2
2022/09/05 02:12:10;;;;;;;;;;;;;;;;;;;;;
2022/09/05 03:31:39;;;;;;;;;;;19.90;1.00;;;;;;5040383;23;20849;-90
2022/09/05 03:34:17;;;;;;;;;;;19.90;1.00;;;;;;4943962;29;20380;-89
2022/09/05 03:37:06;;;;;;;;;;;19.90;1.00;;;;;;4943894;29;19926;-90
2022/09/05 03:39:42;;;;;;;;;;;19.90;1.00;;;;;;4944466;29;19926;-91
2022/09/05 03:42:21;;;;;;;;;;;19.90;1.00;;;;;;4943873;29;19950;-91
2022/09/05 03:45:16;;;;;;;;;;;19.90;1.00;;;;;;4924274;29;19927;-90
2022/09/05 03:48:20;;;;;;;;;;;19.90;1.00;;;;;;4907634;29;19934;-91
2022/09/05 03:51:15;;;;;;;;;;;19.90;1.00;;;;;;4950515;29;20332;-90
2022/09/05 03:54:14;;;;;;;;;;;19.90;1.00;;;;;;4911242;29;19978;-89
2022/09/05 03:57:30;;;;;;;;;;;19.80;1.00;;;;;;4940341;29;19926;-88
2022/09/05 04:00:08;;;;;;;;;;;19.80;1.00;;;;;;4915779;29;19947;-88
2022/09/05 04:02:57;;;;;;;;;;;19.80;1.00;;;;;;4915598;29;19930;-88
2022/09/05 04:05:53;;;;;;;;;;;19.70;1.00;;;;;;4923417;29;19927;-90
2022/09/05 04:08:46;;;;;;;;;;;19.80;1.00;;;;;;4945291;29;19927;-88
2022/09/05 04:12:05;;;;;;;;;;;19.70;1.00;;;;;;4942552;29;20369;-89
2022/09/05 04:14:53;;;;;;;;;;;19.70;1.00;;;;;;4942346;29;19926;-91
2022/09/05 04:18:01;;;;;;;;;;;19.70;1.00;;;;;;4945109;29;20074;-91
2022/09/05 04:21:00;;;;;;;;;;;19.70;1.00;;;;;;4923279;29;19933;-90
2022/09/05 04:23:28;;;;;;;;;;;19.70;1.00;;;;;;4930115;29;19926;-91
2022/09/05 04:26:14;;;;;;;;;;;19.70;1.00;;;;;;4959228;29;19932;-89
2022/09/05 04:28:48;;;;;;;;;;;19.60;1.00;;;;;;4953152;28;19914;-89
2022/09/05 04:31:19;;;;;;;;;;;19.60;1.00;;;;;;4967055;28;19918;-89
2022/09/05 04:34:04;;;;;;;;;;;19.60;1.00;;;;;;4966563;28;19938;-89
2022/09/05 04:36:35;;;;;;;;;;;19.60;1.00;;;;;;4950771;28;19911;-92
2022/09/05 04:39:07;;;;;;;;;;;19.60;1.00;;;;;;4951255;28;19914;-90
2022/09/05 04:41:40;;;;;;;;;;;19.60;1.00;;;;;;4984387;28;19950;-89
2022/09/05 04:44:11;;;;;;;;;;;19.60;1.00;;;;;;4959515;29;19937;-88
2022/09/05 04:46:42;;;;;;;;;;;19.60;1.00;;;;;;4929227;29;19926;-89
2022/09/05 04:49:14;;;;;;;;;;;19.50;1.00;;;;;;4963290;29;19962;-89
2022/09/05 04:52:06;;;;;;;;;;;19.50;1.00;;;;;;4942014;29;19926;-91
2022/09/05 04:54:50;;;;;;;;;;;19.50;1.00;;;;;;4942924;29;19934;-88
2022/09/05 04:58:22;;;;;;;;;;;19.50;1.00;;;;;;4947125;29;19934;-94
2022/09/05 05:01:16;;;;;;;;;;;19.40;1.00;;;;;;4970919;28;19936;-91
2022/09/05 05:04:09;;;;;;;;;;;19.40;1.00;;;;;;4943274;29;19940;-88
2022/09/05 05:07:01;;;;;;;;;;;19.40;1.00;;;;;;4929887;29;19981;-90
2022/09/05 05:09:46;;;;;;;;;;;19.40;1.00;;;;;;4959860;29;19926;-89
2022/09/05 05:12:26;;;;;;;;;;;19.40;1.00;;;;;;4943325;29;20026;-92
2022/09/05 05:15:16;;;;;;;;;;;19.40;1.00;;;;;;4930119;29;20014;-93
2022/09/05 05:18:06;;;;;;;;;;;19.40;1.00;;;;;;4928498;29;19926;-90
2022/09/05 05:20:59;;;;;;;;;;;19.40;1.00;;;;;;4944447;29;19926;-91
2022/09/05 05:23:30;;;;;;;;;;;19.40;1.00;;;;;;4925908;29;20405;-90
2022/09/05 05:25:58;;;;;;;;;;;19.40;1.00;;;;;;4940898;29;19934;-91
2022/09/05 05:28:48;;;;;;;;;;;19.30;1.00;;;;;;4941504;29;20358;-89
2022/09/05 05:31:21;;;;;;;;;;;19.30;1.00;;;;;;4958146;29;19930;-91
2022/09/05 05:33:49;;;;;;;;;;;19.30;1.00;;;;;;4957559;28;19973;-92
2022/09/05 05:36:23;;;;;;;;;;;19.40;1.00;;;;;;4949715;29;19952;-90
2022/09/05 05:39:19;;;;;;;;;;;19.40;1.00;;;;;;4941389;29;19976;-90
2022/09/05 05:41:51;;;;;;;;;;;19.40;1.00;;;;;;4961206;28;19981;-92
2022/09/05 05:44:26;;;;;;;;;;;19.40;1.00;;;;;;4957216;29;19927;-90
2022/09/05 05:47:07;;;;;;;;;;;19.40;1.00;;;;;;4973616;28;20005;-91
2022/09/05 05:49:42;;;;;;;;;;;19.40;1.00;;;;;;4941623;29;19927;-89
2022/09/05 05:52:31;;;;;;;;;;;19.30;1.00;;;;;;4925805;29;19926;-88
2022/09/05 05:54:58;;;;;;;;;;;19.30;1.00;;;;;;4940421;29;19927;-88
2022/09/05 05:58:01;;;;;;;;;;;19.40;1.00;;;;;;4940643;29;19926;-90
2022/09/05 06:01:00;;;;;;;;;;;19.40;1.00;;;;;;4925611;29;19927;-89
2022/09/05 06:03:54;;;;;;;;;;;19.40;1.00;;;;;;4940872;28;19927;-90
2022/09/05 06:06:26;;;;;;;;;;;19.40;1.00;;;;;;4938117;29;19962;-91
2022/09/05 06:09:12;;;;;;;;;;;19.50;1.00;;;;;;4924947;29;19931;-90
2022/09/05 06:12:05;;;;;;;;;;;19.50;1.00;;;;;;4943218;29;19934;-89
2022/09/05 06:15:02;;;;;;;;;;;19.50;1.00;;;;;;4940735;29;19930;-92
2022/09/05 06:17:44;;;;;;;;;;;19.50;1.00;;;;;;4925772;29;20296;-88
2022/09/05 06:20:16;;;;;;;;;;;19.50;1.00;;;;;;4940944;29;19930;-89
2022/09/05 06:23:09;;;;;;;;;;;19.50;1.00;;;;;;4951370;29;19926;-87
2022/09/05 06:26:03;;;;;;;;;;;19.70;1.00;;;;;;4959288;29;19977;-88
2022/09/05 06:28:36;;;;;;;;;;;19.80;1.00;;;;;;4940774;29;19933;-89
2022/09/05 06:31:23;;;;;;;;;;;19.80;1.00;;;;;;4940995;29;19937;-89
2022/09/05 06:34:09;;;;;;;;;;;19.80;1.00;;;;;;4957505;28;19926;-90
2022/09/05 06:37:05;;;;;;;;;;;20.00;1.00;;;;;;4927227;29;19934;-89
2022/09/05 06:39:38;;;;;;;;;;;20.00;1.00;;;;;;4940883;29;19942;-90
2022/09/05 06:42:17;;;;;;;;;;;20.00;1.00;;;;;;4957557;29;19931;-88
2022/09/05 06:45:24;;;;;;;;;;;20.00;1.00;;;;;;4944272;29;20384;-91
2022/09/05 06:48:06;;;;;;;;;;;20.00;1.00;;;;;;4953450;28;20022;-89
2022/09/05 06:50:42;;;;;;;;;;;20.00;1.00;;;;;;4940081;29;19930;-93
2022/09/05 06:53:43;;;;;;;;;;;20.00;1.00;;;;;;4940385;29;19931;-89
2022/09/05 06:56:16;;;;;;;;;;;20.10;1.00;;;;;;4943338;29;20410;-90
2022/09/05 06:58:52;;;;;;;;;;;20.10;1.00;;;;;;4943806;29;19977;-92
2022/09/05 07:01:26;;;;;;;;;;;20.20;1.00;;;;;;4940311;29;19926;-91
2022/09/05 07:04:13;;;;;;;;;;;20.20;1.00;;;;;;4940651;29;19926;-91
2022/09/05 07:07:00;;;;;;;;;;;20.30;1.00;;;;;;4940896;29;19930;-91
2022/09/05 07:09:52;;;;;;;;;;;20.20;1.00;;;;;;4941513;29;20277;-90
2022/09/05 07:12:28;;;;;;;;;;;20.20;1.00;;;;;;4979322;28;19916;-92
2022/09/05 07:15:04;;;;;;;;;;;20.30;1.00;;;;;;4948158;29;19934;-89
2022/09/05 07:17:53;;;;;;;;;;;20.30;1.00;;;;;;4948577;28;19938;-89
2022/09/05 07:20:39;;;;;;;;;;;20.40;1.00;;;;;;4949513;28;19925;-92
2022/09/05 07:23:29;;;;;;;;;;;20.50;1.00;;;;;;4946940;29;19926;-91
2022/09/05 07:26:18;;;;;;;;;;;20.60;1.00;;;;;;4927290;29;19930;-89
2022/09/05 07:29:06;;;;;;;;;;;20.60;1.00;;;;;;4953096;29;19926;-90
2022/09/05 07:31:36;;;;;;;;;;;20.80;1.00;;;;;;4939304;29;19939;-90
2022/09/05 07:34:10;;;;;;;;;;;20.80;1.00;;;;;;4939766;29;19927;-88
2022/09/05 07:36:48;;;;;;;;;;;20.90;1.00;;;;;;4939705;29;19926;-90
2022/09/05 07:39:38;;;;;;;;;;;20.90;1.00;;;;;;4938562;29;19927;-88
2022/09/05 07:42:09;;;;;;;;;;;21.00;1.00;;;;;;4955709;29;20012;-89
2022/09/05 07:44:42;;;;;;;;;;;21.10;1.00;;;;;;4939234;29;19927;-90
2022/09/05 07:47:19;;;;;;;;;;;21.20;1.00;;;;;;4955932;29;19973;-90
2022/09/05 07:49:47;;;;;;;;;;;21.30;1.00;;;;;;4954964;28;19930;-89
2022/09/05 07:52:38;;;;;;;;;;;21.40;1.00;;;;;;4925804;29;20041;-89
2022/09/05 07:55:28;;;;;;;;;;;21.40;1.00;;;;;;4939539;29;19934;-90
2022/09/05 07:58:18;;;;;;;;;;;21.50;1.00;;;;;;4947048;29;19927;-89
2022/09/05 08:00:52;;;;;;;;;;;21.50;1.00;;;;;;4942309;29;19952;-89
2022/09/05 08:03:23;;;;;;;;;;;21.60;1.00;;;;;;4938762;29;20021;-88
2022/09/05 08:05:58;;;;;;;;;;;21.70;1.00;;;;;;4923459;29;19949;-90
2022/09/05 08:08:35;;;;;;;;;;;21.90;1.00;;;;;;4956390;28;19926;-91
2022/09/05 08:11:11;;;;;;;;;;;21.90;1.00;;;;;;4939191;29;19926;-92
2022/09/05 08:13:54;;;;;;;;;;;22.00;1.00;;;;;;4938922;29;20372;-91
2022/09/05 08:16:41;;;;;;;;;;;22.10;1.00;;;;;;4939520;29;19931;-88
2022/09/05 08:19:24;;;;;;;;;;;22.20;1.00;;;;;;4926720;29;20373;-89
2022/09/05 08:21:51;;;;;;;;;;;22.30;1.00;;;;;;4942374;29;19981;-90
2022/09/05 08:24:39;;;;;;;;;;;22.30;1.00;;;;;;4974411;28;19927;-93
2022/09/05 08:27:11;;;;;;;;;;;22.40;1.00;;;;;;4959252;29;19926;-89
2022/09/05 08:29:44;;;;;;;;;;;22.50;1.00;;;;;;4926873;29;19935;-89
2022/09/05 08:32:13;;;;;;;;;;;22.50;1.00;;;;;;4941387;29;19930;-91
2022/09/05 08:35:00;;;;;;;;;;;22.50;1.00;;;;;;4925679;29;20240;-89
2022/09/05 08:37:30;;;;;;;;;;;22.50;1.00;;;;;;4943068;29;19930;-90
2022/09/05 08:40:34;;;;;;;;;;;22.50;1.00;;;;;;4942205;29;19926;-91
2022/09/05 08:43:09;;;;;;;;;;;22.50;1.00;;;;;;4915358;29;19971;-89
2022/09/05 08:45:58;;;;;;;;;;;22.50;1.00;;;;;;4932739;29;19989;-88
2022/09/05 08:49:11;;;;;;;;;;;22.60;1.00;;;;;;4945869;29;19965;-90
2022/09/05 08:52:07;;;;;;;;;;;22.60;1.00;;;;;;4927668;29;19993;-90
2022/09/05 08:54:45;;;;;;;;;;;22.80;1.00;;;;;;4941245;29;20024;-89
2022/09/05 08:57:17;;;;;;;;;;;22.90;1.00;;;;;;4941779;29;19931;-88
2022/09/05 09:00:06;;;;;;;;;;;23.00;1.00;;;;;;4958662;29;19927;-90
2022/09/05 09:02:49;;;;;;;;;;;23.20;1.00;;;;;;4941433;29;19927;-89
2022/09/05 09:05:16;;;;;;;;;;;23.30;1.00;;;;;;4941370;29;19927;-89
2022/09/05 09:07:56;;;;;;;;;;;23.40;1.00;;;;;;4941259;29;20447;-88
2022/09/05 09:10:36;;;;;;;;;;;23.60;1.00;;;;;;4925680;29;19931;-90
2022/09/05 09:13:06;;;;;;;;;;;23.80;1.00;;;;;;4940597;29;19933;-91
2022/09/05 09:15:36;;;;;;;;;;;23.90;1.00;;;;;;4940932;29;19927;-90
2022/09/05 09:18:09;;;;;;;;;;;24.10;1.00;;;;;;4925526;29;20323;-89
2022/09/05 09:20:54;;;;;;;;;;;24.20;1.00;;;;;;4941382;29;19927;-90
2022/09/05 09:23:40;;;;;;;;;;;24.20;1.00;;;;;;4941407;29;19930;-90
2022/09/05 09:26:14;;;;;;;;;;;24.40;1.00;;;;;;4940915;29;19926;-90
2022/09/05 09:28:41;;;;;;;;;;;24.40;1.00;;;;;;4940838;29;19927;-90
2022/09/05 09:31:37;;;;;;;;;;;24.70;1.00;;;;;;4941518;29;20392;-88
2022/09/05 09:34:13;;;;;;;;;;;25.00;1.00;;;;;;4921086;29;19926;-88
2022/09/05 09:36:56;;;;;;;;;;;25.10;1.00;;;;;;4925616;29;19950;-91
2022/09/05 09:39:44;;;;;;;;;;;25.10;1.00;;;;;;4957928;29;19933;-88
2022/09/05 09:42:56;;;;;;;;;;;25.10;1.00;;;;;;4940890;29;19930;-90
2022/09/05 09:45:28;;;;;;;;;;;25.10;1.00;;;;;;4899097;29;19927;-88
2022/09/05 09:48:01;;;;;;;;;;;25.00;1.00;;;;;;4883462;29;19970;-89
2022/09/05 09:50:47;;;;;;;;;;;25.10;1.00;;;;;;4933306;28;19914;-88
2022/09/05 09:53:45;;;;;;;;;;;25.10;1.00;;;;;;4966464;28;19916;-90
2022/09/05 09:56:25;;;;;;;;;;;25.30;1.00;;;;;;4949020;28;19941;-89
2022/09/05 09:59:01;;;;;;;;;;;25.40;1.00;;;;;;4964425;28;19929;-90
2022/09/05 10:01:37;;;;;;;;;;;25.40;1.00;;;;;;4960183;28;19926;-89
2022/09/05 10:04:16;;;;;;;;;;;25.60;1.00;;;;;;4941442;29;19933;-89
2022/09/05 10:07:15;;;;;;;;;;;25.70;1.00;;;;;;4940358;29;20041;-90
2022/09/05 10:10:05;;;;;;;;;;;26.00;1.00;;;;;;4943546;29;19930;-90
2022/09/05 10:13:10;;;;;;;;;;;26.10;1.00;;;;;;4939951;29;19937;-91
2022/09/05 10:16:01;;;;;;;;;;;26.20;1.00;;;;;;4924926;29;19930;-90
2022/09/05 10:18:45;;;;;;;;;;;26.20;1.00;;;;;;4941257;29;19942;-90
2022/09/05 10:21:24;;;;;;;;;;;26.60;1.00;;;;;;4946241;29;19974;-87
2022/09/05 10:24:12;;;;;;;;;;;26.60;1.00;;;;;;4939822;29;19927;-87
2022/09/05 10:26:42;;;;;;;;;;;26.70;1.00;;;;;;4924260;29;19927;-91
2022/09/05 10:29:10;;;;;;;;;;;26.70;1.00;;;;;;4939665;29;19946;-88
2022/09/05 10:32:04;;;;;;;;;;;26.90;1.00;;;;;;4952359;29;20327;-89
2022/09/05 10:35:21;;;;;;;;;;;26.90;1.00;;;;;;4926371;29;19931;-90
2022/09/05 10:38:02;;;;;;;;;;;26.90;1.00;;;;;;4928672;29;19927;-91
2022/09/05 10:40:38;;;;;;;;;;;27.10;1.00;;;;;;4940330;29;19933;-88
2022/09/05 10:43:27;;;;;;;;;;;27.30;1.00;;;;;;4926475;29;19927;-88
2022/09/05 10:45:59;;;;;;;;;;;27.30;1.00;;;;;;4923965;29;19951;-90
2022/09/05 10:48:49;;;;;;;;;;;27.40;1.00;;;;;;4924068;29;19926;-91
2022/09/05 10:51:31;;;;;;;;;;;27.50;1.00;;;;;;4940337;29;19927;-89
2022/09/05 10:54:06;;;;;;;;;;;27.50;1.00;;;;;;4940618;29;20017;-90
2022/09/05 10:56:38;;;;;;;;;;;27.60;1.00;;;;;;4939786;29;19927;-90
2022/09/05 10:59:14;;;;;;;;;;;27.60;1.00;;;;;;4956636;29;19930;-89
2022/09/05 11:02:16;;;;;;;;;;;27.70;1.00;;;;;;4942038;29;19930;-90
2022/09/05 11:05:18;;;;;;;;;;;27.80;1.00;;;;;;4941729;29;19927;-87
2022/09/05 11:07:54;;;;;;;;;;;27.90;1.00;;;;;;4944804;29;19926;-87
2022/09/05 11:10:23;;;;;;;;;;;27.90;1.00;;;;;;4944375;29;19927;-88
2022/09/05 11:13:07;;;;;;;;;;;27.90;1.00;;;;;;4957322;29;19926;-91
2022/09/05 11:15:49;;;;;;;;;;;27.90;1.00;;;;;;4940265;29;19968;-89
2022/09/05 11:18:31;;;;;;;;;;;28.00;1.00;;;;;;4939867;29;19926;-89
2022/09/05 11:21:37;;;;;;;;;;;28.00;1.00;;;;;;4942657;29;20023;-91
2022/09/05 11:24:13;;;;;;;;;;;28.10;1.00;;;;;;4939958;29;19977;-88
2022/09/05 11:26:44;;;;;;;;;;;28.10;1.00;;;;;;4939609;29;19927;-88
2022/09/05 11:29:21;;;;;;;;;;;28.10;1.00;;;;;;4925259;29;19931;-88
2022/09/05 11:32:00;;;;;;;;;;;28.10;1.00;;;;;;4939982;29;20390;-89
2022/09/05 11:34:48;;;;;;;;;;;28.20;1.00;;;;;;4942722;29;20296;-89
2022/09/05 11:37:55;;;;;;;;;;;28.20;1.00;;;;;;4951224;29;19926;-89
2022/09/05 11:40:48;;;;;;;;;;;28.00;1.00;;;;;;4946596;29;20001;-91
2022/09/05 11:43:51;;;;;;;;;;;27.90;1.00;;;;;;4942872;29;19927;-90
2022/09/05 11:46:57;;;;;;;;;;;27.90;1.00;;;;;;4926621;29;19926;-91
2022/09/05 11:50:02;;;;;;;;;;;28.00;1.00;;;;;;4956138;29;19962;-91
2022/09/05 11:52:40;;;;;;;;;;;28.00;1.00;;;;;;4940850;29;19927;-91
2022/09/05 11:55:15;;;;;;;;;;;27.90;1.00;;;;;;4964419;29;20309;-89
2022/09/05 11:58:02;;;;;;;;;;;27.80;1.00;;;;;;4945969;29;19926;-90
2022/09/05 12:00:55;;;;;;;;;;;27.70;1.00;;;;;;4959840;29;19926;-89
2022/09/05 12:04:00;;;;;;;;;;;27.70;1.00;;;;;;4929409;29;20273;-90
2022/09/05 12:06:39;;;;;;;;;;;27.80;1.00;;;;;;4928373;29;19926;-89
2022/09/05 12:09:25;;;;;;;;;;;27.90;1.00;;;;;;4944747;29;19977;-88
2022/09/05 12:12:15;;;;;;;;;;;28.00;1.00;;;;;;4942623;29;19981;-90
2022/09/05 12:15:10;;;;;;;;;;;28.20;1.00;;;;;;4944747;29;19933;-91
2022/09/05 12:17:45;;;;;;;;;;;28.40;1.00;;;;;;4944310;29;19927;-88
2022/09/05 12:20:15;;;;;;;;;;;28.50;1.00;;;;;;4943101;29;19933;-88
2022/09/05 12:23:34;;;;;;;;;;;28.60;1.00;;;;;;4946400;29;19933;-90
2022/09/05 12:26:33;;;;;;;;;;;28.70;1.00;;;;;;4974317;28;19949;-90
2022/09/05 12:29:34;;;;;;;;;;;28.80;1.00;;;;;;4954528;28;19931;-90
2022/09/05 12:32:24;;;;;;;;;;;28.70;1.00;;;;;;4979831;28;19910;-88
2022/09/05 12:35:30;;;;;;;;;;;28.90;1.00;;;;;;4966221;28;19914;-91
2022/09/05 12:38:25;;;;;;;;;;;28.80;1.00;;;;;;4982757;28;19927;-90
2022/09/05 12:41:20;;;;;;;;;;;28.80;1.00;;;;;;4931263;29;19926;-89
2022/09/05 12:44:22;;;;;;;;;;;28.70;1.00;;;;;;4979408;28;19930;-89
2022/09/05 12:47:15;;;;;;;;;;;28.70;1.00;;;;;;4929215;29;19927;-89
2022/09/05 12:50:06;;;;;;;;;;;28.60;1.00;;;;;;4942611;29;19927;-90
2022/09/05 12:52:45;;;;;;;;;;;28.50;1.00;;;;;;4958676;29;19965;-91
2022/09/05 12:55:15;;;;;;;;;;;28.50;1.00;;;;;;4941562;29;20370;-91
2022/09/05 12:57:47;;;;;;;;;;;28.50;1.00;;;;;;4942224;29;19931;-90
2022/09/05 13:00:44;;;;;;;;;;;28.50;1.00;;;;;;4928285;29;20463;-91
2022/09/05 13:03:36;;;;;;;;;;;28.40;1.00;;;;;;4959719;28;19927;-89
2022/09/05 13:06:29;;;;;;;;;;;28.40;1.00;;;;;;4928331;29;19927;-88
2022/09/05 13:09:09;;;;;;;;;;;28.40;1.00;;;;;;4925239;29;19950;-89
2022/09/05 13:11:42;;;;;;;;;;;28.40;1.00;;;;;;4941053;29;20383;-89
2022/09/05 13:14:39;;;;;;;;;;;28.40;1.00;;;;;;4940759;29;19974;-90
2022/09/05 13:17:37;;;;;;;;;;;28.30;1.00;;;;;;4941016;29;19934;-90
2022/09/05 13:20:10;;;;;;;;;;;28.30;1.00;;;;;;4942140;29;19933;-89
2022/09/05 13:22:38;;;;;;;;;;;28.40;1.00;;;;;;4940620;29;20443;-90
2022/09/05 13:25:25;;;;;;;;;;;28.40;1.00;;;;;;4942158;29;19926;-90
2022/09/05 13:27:56;;;;;;;;;;;28.40;1.00;;;;;;4974012;28;19938;-90
2022/09/05 13:30:27;;;;;;;;;;;28.50;1.00;;;;;;4949668;29;19932;-88
2022/09/05 13:33:18;;;;;;;;;;;28.60;1.00;;;;;;4944020;29;20384;-89
2022/09/05 13:36:06;;;;;;;;;;;28.60;1.00;;;;;;4927223;29;19930;-90
2022/09/05 13:39:04;;;;;;;;;;;28.70;1.00;;;;;;4943755;29;19931;-90
2022/09/05 13:41:42;;;;;;;;;;;28.70;1.00;;;;;;4941077;29;19984;-91
2022/09/05 13:44:13;;;;;;;;;;;28.80;1.00;;;;;;4940996;29;19936;-89
2022/09/05 13:47:04;;;;;;;;;;;28.90;1.00;;;;;;4926311;29;19932;-88
2022/09/05 13:50:12;;;;;;;;;;;28.90;1.00;;;;;;4940691;29;19930;-89
2022/09/05 13:53:14;;;;;;;;;;;29.10;1.00;;;;;;4939564;29;20392;-89
2022/09/05 13:55:47;;;;;;;;;;;29.00;1.00;;;;;;4949894;28;19927;-90
2022/09/05 13:58:38;;;;;;;;;;;29.10;1.00;;;;;;4941239;29;20360;-90
2022/09/05 14:01:05;;;;;;;;;;;29.10;1.00;;;;;;4939990;29;19926;-90
2022/09/05 14:03:41;;;;;;;;;;;29.20;1.00;;;;;;4939956;29;19930;-89
2022/09/05 14:06:09;;;;;;;;;;;29.20;1.00;;;;;;4940150;29;20026;-88
2022/09/05 14:09:03;;;;;;;;;;;29.30;1.00;;;;;;4940304;29;20305;-90
2022/09/05 14:12:02;;;;;;;;;;;29.20;1.00;;;;;;4939799;29;20340;-89
2022/09/05 14:14:36;;;;;;;;;;;29.20;1.00;;;;;;4939648;28;19976;-90
2022/09/05 14:17:36;;;;;;;;;;;29.20;1.00;;;;;;4935398;29;19926;-89
2022/09/05 14:23:16;;;;;;;;;;;29.50;1.00;;;;;;4939955;29;19937;-89
2022/09/05 14:25:47;;;;;;;;;;;29.60;1.00;;;;;;4924112;29;19927;-88
2022/09/05 14:28:25;;;;;;;;;;;29.70;1.00;;;;;;4936681;29;20296;-89
2022/09/05 14:31:04;;;;;;;;;;;29.70;1.00;;;;;;4939950;29;19927;-91
2022/09/05 14:34:07;;;;;;;;;;;29.80;1.00;;;;;;4923537;29;19933;-90
2022/09/05 14:37:16;;;;;;;;;;;29.60;1.00;;;;;;4921088;29;20377;-92
2022/09/05 14:40:08;;;;;;;;;;;29.60;1.00;;;;;;4918953;29;19926;-89
2022/09/05 14:43:21;;;;;;;;;;;29.50;1.00;;;;;;4925286;29;20017;-89
2022/09/05 14:46:06;;;;;;;;;;;29.40;1.00;;;;;;4924877;29;19977;-88
2022/09/05 14:48:36;;;;;;;;;;;29.60;1.00;;;;;;4955787;29;19926;-90
2022/09/05 14:51:27;;;;;;;;;;;29.60;1.00;;;;;;4924827;29;19927;-88
2022/09/05 14:53:58;;;;;;;;;;;29.60;1.00;;;;;;4939848;29;20032;-89
2022/09/05 14:56:33;;;;;;;;;;;29.70;1.00;;;;;;4940713;29;19926;-90
2022/09/05 14:59:20;;;;;;;;;;;29.70;1.00;;;;;;4928349;29;19950;-89
2022/09/05 15:02:10;;;;;;;;;;;29.70;1.00;;;;;;4962292;28;19915;-88
2022/09/05 15:04:59;;;;;;;;;;;29.80;1.00;;;;;;4980412;28;19977;-87
2022/09/05 15:07:38;;;;;;;;;;;29.70;1.00;;;;;;4965500;28;19910;-89
2022/09/05 15:10:23;;;;;;;;;;;29.70;1.00;;;;;;4995661;28;19910;-89
2022/09/05 15:13:16;;;;;;;;;;;29.70;1.00;;;;;;4950500;28;19930;-89
2022/09/05 15:15:45;;;;;;;;;;;29.60;1.00;;;;;;4940006;29;19930;-90
2022/09/05 15:18:30;;;;;;;;;;;29.50;1.00;;;;;;4941950;29;19927;-90
2022/09/05 15:21:16;;;;;;;;;;;29.30;1.00;;;;;;4923831;29;19969;-89
2022/09/05 15:24:19;;;;;;;;;;;29.40;1.00;;;;;;4956554;29;20384;-88
2022/09/05 15:26:51;;;;;;;;;;;29.30;1.00;;;;;;4940933;29;19926;-89
2022/09/05 15:29:21;;;;;;;;;;;29.30;1.00;;;;;;4943334;29;19926;-88
2022/09/05 15:31:48;;;;;;;;;;;29.30;1.00;;;;;;4943888;29;19926;-87
2022/09/05 15:34:34;;;;;;;;;;;29.30;1.00;;;;;;4929870;29;19956;-89
2022/09/05 15:37:22;;;;;;;;;;;29.30;1.00;;;;;;4944031;29;19927;-87
2022/09/05 15:39:59;;;;;;;;;;;29.30;1.00;;;;;;4943687;29;20018;-91
2022/09/05 15:42:30;;;;;;;;;;;29.20;1.00;;;;;;4943739;29;19974;-89
2022/09/05 15:45:12;;;;;;;;;;;29.20;1.00;;;;;;4925065;29;20436;-88
2022/09/05 15:47:43;;;;;;;;;;;29.10;1.00;;;;;;4939778;29;19934;-88
2022/09/05 15:50:16;;;;;;;;;;;29.10;1.00;;;;;;4928119;29;19973;-88
2022/09/05 15:52:50;;;;;;;;;;;29.10;1.00;;;;;;4947300;29;20495;-89
2022/09/05 15:55:25;;;;;;;;;;;29.00;1.00;;;;;;4942705;29;20321;-89
2022/09/05 15:58:01;;;;;;;;;;;29.10;1.00;;;;;;4949935;29;19930;-89
2022/09/05 16:00:31;;;;;;;;;;;29.10;1.00;;;;;;4932894;29;20262;-90
2022/09/05 16:03:25;;;;;;;;;;;29.00;1.00;;;;;;4918762;29;19966;-91
2022/09/05 16:06:15;;;;;;;;;;;29.00;1.00;;;;;;4915694;29;20292;-90
2022/09/05 16:09:21;;;;;;;;;;;28.90;1.00;;;;;;4944435;29;20368;-89
2022/09/05 16:12:11;;;;;;;;;;;28.80;1.00;;;;;;4941644;29;20419;-89
2022/09/05 16:14:47;;;;;;;;;;;28.70;1.00;;;;;;4943509;29;20416;-91
2022/09/05 16:17:47;;;;;;;;;;;28.60;1.00;;;;;;4941677;29;19949;-90
2022/09/05 16:20:47;;;;;;;;;;;28.60;1.00;;;;;;4912618;29;20303;-92
2022/09/05 16:23:39;;;;;;;;;;;28.50;1.00;;;;;;4939108;29;19993;-93
2022/09/05 16:26:32;;;;;;;;;;;28.50;1.00;;;;;;4928808;29;19934;-92
2022/09/05 16:29:30;;;;;;;;;;;28.40;1.00;;;;;;4931868;29;19970;-89
2022/09/05 16:32:18;;;;;;;;;;;28.30;1.00;;;;;;4927585;29;20325;-90
2022/09/05 16:34:53;;;;;;;;;;;28.30;1.00;;;;;;4942614;29;19991;-91
2022/09/05 16:37:27;;;;;;;;;;;28.20;1.00;;;;;;4934053;28;19927;-92
2022/09/05 16:39:59;;;;;;;;;;;28.20;1.00;;;;;;4953759;29;19980;-92
2022/09/05 16:42:45;;;;;;;;;;;28.00;1.00;;;;;;4934969;29;19927;-90
2022/09/05 16:45:42;;;;;;;;;;;28.00;1.00;;;;;;4946561;29;19969;-90
2022/09/05 16:48:17;;;;;;;;;;;27.90;1.00;;;;;;4871478;29;19932;-90
2022/09/05 16:50:46;;;;;;;;;;;27.90;1.00;;;;;;4934919;29;19969;-90
2022/09/05 16:53:20;;;;;;;;;;;27.80;1.00;;;;;;4946854;29;20376;-92
2022/09/05 16:56:20;;;;;;;;;;;27.70;1.00;;;;;;4936635;29;19962;-92
2022/09/05 16:58:49;;;;;;;;;;;27.70;1.00;;;;;;4941107;29;20017;-91
2022/09/05 17:01:31;;;;;;;;;;;27.60;1.00;;;;;;4925392;29;19926;-90
2022/09/05 17:04:18;;;;;;;;;;;27.60;1.00;;;;;;4925651;29;19926;-89
2022/09/05 17:06:53;;;;;;;;;;;27.50;1.00;;;;;;4926310;29;19934;-91
2022/09/05 17:09:20;;;;;;;;;;;27.40;1.00;;;;;;4941108;29;19926;-90
2022/09/05 17:11:48;;;;;;;;;;;27.30;1.00;;;;;;4957689;29;20016;-89
2022/09/05 17:14:32;;;;;;;;;;;27.20;1.00;;;;;;4941292;29;20303;-91
2022/09/05 17:17:13;;;;;;;;;;;27.10;1.00;;;;;;4941728;29;19949;-91
2022/09/05 17:20:08;;;;;;;;;;;27.00;1.00;;;;;;4945248;29;19965;-89
2022/09/05 17:22:39;;;;;;;;;;;26.90;1.00;;;;;;4941345;29;19945;-89
2022/09/05 17:25:32;;;;;;;;;;;26.90;1.00;;;;;;4946480;29;19927;-89
2022/09/05 17:28:48;;;;;;;;;;;26.90;1.00;;;;;;4930025;29;19927;-91
2022/09/05 17:31:39;;;;;;;;;;;26.80;1.00;;;;;;4922854;29;19986;-90
2022/09/05 17:34:42;;;;;;;;;;;26.70;1.00;;;;;;4962616;28;19914;-91
2022/09/05 17:37:47;;;;;;;;;;;26.60;1.00;;;;;;4981938;28;20006;-91
2022/09/05 17:40:35;;;;;;;;;;;26.60;1.00;;;;;;4982073;28;19914;-92
2022/09/05 17:43:05;;;;;;;;;;;26.60;1.00;;;;;;4965460;28;19910;-90
2022/09/05 17:45:52;;;;;;;;;;;26.40;1.00;;;;;;4959075;28;19926;-93
2022/09/05 17:48:40;;;;;;;;;;;26.40;1.00;;;;;;4941245;29;19966;-90
2022/09/05 17:51:17;;;;;;;;;;;26.30;1.00;;;;;;4920700;29;19931;-90
2022/09/05 17:54:06;;;;;;;;;;;26.20;1.00;;;;;;4921834;29;20369;-91
2022/09/05 17:56:42;;;;;;;;;;;26.10;1.00;;;;;;4922170;29;19927;-90
2022/09/05 17:59:16;;;;;;;;;;;26.00;1.00;;;;;;4921033;29;19927;-91
2022/09/05 18:02:02;;;;;;;;;;;26.00;1.00;;;;;;4916101;29;20308;-91
2022/09/05 18:04:47;;;;;;;;;;;25.90;1.00;;;;;;4904356;29;19978;-90
2022/09/05 18:07:43;;;;;;;;;;;25.90;1.00;;;;;;4905950;29;19966;-90
2022/09/05 18:10:14;;;;;;;;;;;25.90;1.00;;;;;;4884691;29;19933;-92
2022/09/05 18:13:13;;;;;;;;;;;25.80;1.00;;;;;;4925870;29;20060;-89
2022/09/05 18:16:09;;;;;;;;;;;25.80;1.00;;;;;;4908150;29;19927;-90
2022/09/05 18:18:36;;;;;;;;;;;25.70;1.00;;;;;;4921746;29;19973;-91
2022/09/05 18:21:41;;;;;;;;;;;25.60;1.00;;;;;;4938301;29;20013;-89
2022/09/05 18:24:15;;;;;;;;;;;25.50;1.00;;;;;;4938098;29;19927;-91
2022/09/05 18:26:45;;;;;;;;;;;25.40;1.00;;;;;;4921310;29;19927;-89
2022/09/05 18:29:23;;;;;;;;;;;25.30;1.00;;;;;;4905711;29;19927;-89
2022/09/05 18:32:11;;;;;;;;;;;25.20;1.00;;;;;;4938181;29;19937;-90
2022/09/05 18:34:38;;;;;;;;;;;25.30;1.00;;;;;;4920835;29;19933;-89
2022/09/05 18:37:25;;;;;;;;;;;25.30;1.00;;;;;;4921055;29;20459;-90
2022/09/05 18:40:03;;;;;;;;;;;25.30;1.00;;;;;;4920574;29;19927;-89
2022/09/05 18:42:36;;;;;;;;;;;25.30;1.00;;;;;;4936967;29;19955;-89
2022/09/05 18:45:12;;;;;;;;;;;25.30;1.00;;;;;;4920782;29;19970;-88
2022/09/05 18:47:44;;;;;;;;;;;25.20;1.00;;;;;;4920836;29;19927;-89
2022/09/05 18:50:20;;;;;;;;;;;25.20;1.00;;;;;;4920435;29;19978;-89
2022/09/05 18:52:57;;;;;;;;;;;25.10;1.00;;;;;;4930867;29;19926;-89
2022/09/05 18:55:49;;;;;;;;;;;25.10;1.00;;;;;;4941638;29;19958;-90
2022/09/05 18:58:44;;;;;;;;;;;25.00;1.00;;;;;;4943438;29;20021;-90
2022/09/05 19:01:24;;;;;;;;;;;25.00;1.00;;;;;;4945674;29;19962;-90
2022/09/05 19:03:56;;;;;;;;;;;24.90;1.00;;;;;;4937534;29;19927;-89
2022/09/05 19:06:27;;;;;;;;;;;25.00;1.00;;;;;;4920989;29;19972;-89
2022/09/05 19:09:05;;;;;;;;;;;24.90;1.00;;;;;;4920074;29;19934;-89
2022/09/05 19:11:55;;;;;;;;;;;24.90;1.00;;;;;;4933463;29;19955;-88
2022/09/05 19:14:30;;;;;;;;;;;24.90;1.00;;;;;;4920934;29;21289;-90
2022/09/05 19:17:00;;;;;;;;;;;24.80;1.00;;;;;;4921904;29;19935;-89
2022/09/05 19:19:30;;;;;;;;;;;24.80;1.00;;;;;;4945483;29;19934;-90
2022/09/05 19:22:00;;;;;;;;;;;24.80;1.00;;;;;;4928812;29;19941;-90
2022/09/05 19:24:47;;;;;;;;;;;24.80;1.00;;;;;;4920459;29;20389;-89
2022/09/05 19:27:15;;;;;;;;;;;24.80;1.00;;;;;;4928585;29;19986;-90
2022/09/05 19:30:05;;;;;;;;;;;24.70;1.00;;;;;;4917082;29;19934;-90
2022/09/05 19:32:53;;;;;;;;;;;24.70;1.00;;;;;;4940605;29;19927;-89
2022/09/05 19:35:41;;;;;;;;;;;24.60;1.00;;;;;;4918317;29;19926;-91
2022/09/05 19:38:32;;;;;;;;;;;24.60;1.00;;;;;;4935412;29;19926;-90
2022/09/05 19:41:23;;;;;;;;;;;24.60;1.00;;;;;;4918533;29;20010;-90